sensor_id;sensor_type;location;lat;lon;timestamp;P1;durP1;ratioP1;P2;durP2;ratioP2
32200;SDS011;18701;45.588;5.288;2022-07-15T00:00:05;7.88;;;0.68;;
32200;SDS011;18701;45.588;5.288;2022-07-15T00:02:33;2.58;;;0.30;;
32200;SDS011;18701;45.588;5.288;2022-07-15T00:04:59;5.78;;;0.50;;
32200;SDS011;18701;45.588;5.288;2022-07-15T00:07:24;4.05;;;0.40;;
32200;SDS011;18701;45.588;5.288;2022-07-15T00:09:50;5.85;;;1.20;;
32200;SDS011;18701;45.588;5.288;2022-07-15T00:12:34;5.15;;;0.68;;
32200;SDS011;18701;45.588;5.288;2022-07-15T00:15:00;3.97;;;0.65;;
32200;SDS011;18701;45.588;5.288;2022-07-15T00:17:26;2.95;;;0.57;;
32200;SDS011;18701;45.588;5.288;2022-07-15T00:19:52;9.52;;;0.80;;
32200;SDS011;18701;45.588;5.288;2022-07-15T00:22:18;2.85;;;0.88;;
32200;SDS011;18701;45.588;5.288;2022-07-15T00:24:44;2.55;;;0.55;;
32200;SDS011;18701;45.588;5.288;2022-07-15T00:27:09;4.53;;;0.70;;
32200;SDS011;18701;45.588;5.288;2022-07-15T00:29:36;2.50;;;0.75;;
32200;SDS011;18701;45.588;5.288;2022-07-15T00:32:02;1.48;;;0.40;;
32200;SDS011;18701;45.588;5.288;2022-07-15T00:34:28;3.80;;;0.40;;
32200;SDS011;18701;45.588;5.288;2022-07-15T00:36:53;2.72;;;0.47;;
32200;SDS011;18701;45.588;5.288;2022-07-15T00:39:19;3.53;;;0.70;;
32200;SDS011;18701;45.588;5.288;2022-07-15T00:41:44;1.75;;;0.50;;
32200;SDS011;18701;45.588;5.288;2022-07-15T00:44:10;2.05;;;0.57;;
32200;SDS011;18701;45.588;5.288;2022-07-15T00:46:37;0.95;;;0.68;;
32200;SDS011;18701;45.588;5.288;2022-07-15T00:49:03;7.15;;;0.77;;
32200;SDS011;18701;45.588;5.288;2022-07-15T00:51:41;0.80;;;0.40;;
32200;SDS011;18701;45.588;5.288;2022-07-15T00:54:09;2.10;;;0.60;;
32200;SDS011;18701;45.588;5.288;2022-07-15T00:56:37;2.15;;;0.60;;
32200;SDS011;18701;45.588;5.288;2022-07-15T00:59:06;2.97;;;0.55;;
32200;SDS011;18701;45.588;5.288;2022-07-15T01:01:33;1.38;;;0.50;;
32200;SDS011;18701;45.588;5.288;2022-07-15T01:04:03;1.00;;;0.60;;
32200;SDS011;18701;45.588;5.288;2022-07-15T01:06:30;3.08;;;0.60;;
32200;SDS011;18701;45.588;5.288;2022-07-15T01:08:56;0.75;;;0.40;;
32200;SDS011;18701;45.588;5.288;2022-07-15T01:11:21;5.20;;;0.50;;
32200;SDS011;18701;45.588;5.288;2022-07-15T01:13:47;1.17;;;0.52;;
32200;SDS011;18701;45.588;5.288;2022-07-15T01:16:13;1.90;;;0.68;;
32200;SDS011;18701;45.588;5.288;2022-07-15T01:18:39;2.88;;;0.50;;
32200;SDS011;18701;45.588;5.288;2022-07-15T01:21:05;0.68;;;0.40;;
32200;SDS011;18701;45.588;5.288;2022-07-15T01:23:31;0.68;;;0.50;;
32200;SDS011;18701;45.588;5.288;2022-07-15T01:25:56;2.28;;;0.50;;
32200;SDS011;18701;45.588;5.288;2022-07-15T01:28:22;3.30;;;0.45;;
32200;SDS011;18701;45.588;5.288;2022-07-15T01:30:51;4.22;;;0.90;;
32200;SDS011;18701;45.588;5.288;2022-07-15T01:33:16;1.42;;;0.40;;
32200;SDS011;18701;45.588;5.288;2022-07-15T01:35:42;6.68;;;0.98;;
32200;SDS011;18701;45.588;5.288;2022-07-15T01:38:08;0.90;;;0.57;;
32200;SDS011;18701;45.588;5.288;2022-07-15T01:40:34;2.20;;;0.98;;
32200;SDS011;18701;45.588;5.288;2022-07-15T01:42:59;2.80;;;0.60;;
32200;SDS011;18701;45.588;5.288;2022-07-15T01:45:25;1.92;;;0.65;;
32200;SDS011;18701;45.588;5.288;2022-07-15T01:47:51;5.07;;;0.60;;
32200;SDS011;18701;45.588;5.288;2022-07-15T01:50:17;1.90;;;0.77;;
32200;SDS011;18701;45.588;5.288;2022-07-15T01:52:44;2.55;;;0.70;;
32200;SDS011;18701;45.588;5.288;2022-07-15T01:55:09;0.80;;;0.52;;
32200;SDS011;18701;45.588;5.288;2022-07-15T01:57:36;1.85;;;0.60;;
32200;SDS011;18701;45.588;5.288;2022-07-15T02:00:02;3.13;;;0.63;;
32200;SDS011;18701;45.588;5.288;2022-07-15T02:02:29;2.63;;;0.70;;
32200;SDS011;18701;45.588;5.288;2022-07-15T02:04:55;3.47;;;0.70;;
32200;SDS011;18701;45.588;5.288;2022-07-15T02:07:20;3.65;;;0.63;;
32200;SDS011;18701;45.588;5.288;2022-07-15T02:09:46;1.80;;;0.68;;
32200;SDS011;18701;45.588;5.288;2022-07-15T02:12:12;2.00;;;0.70;;
32200;SDS011;18701;45.588;5.288;2022-07-15T02:14:38;1.70;;;0.50;;
32200;SDS011;18701;45.588;5.288;2022-07-15T02:17:03;2.08;;;0.68;;
32200;SDS011;18701;45.588;5.288;2022-07-15T02:19:29;2.25;;;0.60;;
32200;SDS011;18701;45.588;5.288;2022-07-15T02:21:55;1.08;;;0.68;;
32200;SDS011;18701;45.588;5.288;2022-07-15T02:24:21;3.65;;;0.60;;
32200;SDS011;18701;45.588;5.288;2022-07-15T02:26:46;1.90;;;0.70;;
32200;SDS011;18701;45.588;5.288;2022-07-15T02:29:13;0.90;;;0.40;;
32200;SDS011;18701;45.588;5.288;2022-07-15T02:31:40;3.70;;;0.75;;
32200;SDS011;18701;45.588;5.288;2022-07-15T02:34:05;2.58;;;0.57;;
32200;SDS011;18701;45.588;5.288;2022-07-15T02:36:31;3.10;;;0.75;;
32200;SDS011;18701;45.588;5.288;2022-07-15T02:38:57;4.25;;;0.60;;
32200;SDS011;18701;45.588;5.288;2022-07-15T02:41:25;3.67;;;0.52;;
32200;SDS011;18701;45.588;5.288;2022-07-15T02:43:51;0.75;;;0.47;;
32200;SDS011;18701;45.588;5.288;2022-07-15T02:46:17;3.88;;;0.73;;
32200;SDS011;18701;45.588;5.288;2022-07-15T02:48:43;1.17;;;0.52;;
32200;SDS011;18701;45.588;5.288;2022-07-15T02:51:08;4.80;;;0.75;;
32200;SDS011;18701;45.588;5.288;2022-07-15T02:53:35;2.25;;;1.20;;
32200;SDS011;18701;45.588;5.288;2022-07-15T02:56:01;1.55;;;0.73;;
32200;SDS011;18701;45.588;5.288;2022-07-15T02:58:27;1.23;;;0.80;;
32200;SDS011;18701;45.588;5.288;2022-07-15T03:00:55;2.53;;;0.63;;
32200;SDS011;18701;45.588;5.288;2022-07-15T03:03:22;4.15;;;0.90;;
32200;SDS011;18701;45.588;5.288;2022-07-15T03:05:55;2.65;;;0.52;;
32200;SDS011;18701;45.588;5.288;2022-07-15T03:08:22;0.95;;;0.43;;
32200;SDS011;18701;45.588;5.288;2022-07-15T03:10:50;2.45;;;0.68;;
32200;SDS011;18701;45.588;5.288;2022-07-15T03:13:16;0.77;;;0.52;;
32200;SDS011;18701;45.588;5.288;2022-07-15T03:15:42;1.65;;;0.60;;
32200;SDS011;18701;45.588;5.288;2022-07-15T03:18:07;1.70;;;0.73;;
32200;SDS011;18701;45.588;5.288;2022-07-15T03:20:33;2.35;;;0.80;;
32200;SDS011;18701;45.588;5.288;2022-07-15T03:22:59;1.98;;;0.73;;
32200;SDS011;18701;45.588;5.288;2022-07-15T03:25:24;2.25;;;1.02;;
32200;SDS011;18701;45.588;5.288;2022-07-15T03:27:50;3.45;;;0.60;;
32200;SDS011;18701;45.588;5.288;2022-07-15T03:30:17;5.05;;;0.95;;
32200;SDS011;18701;45.588;5.288;2022-07-15T03:32:42;2.17;;;0.73;;
32200;SDS011;18701;45.588;5.288;2022-07-15T03:35:08;2.25;;;0.85;;
32200;SDS011;18701;45.588;5.288;2022-07-15T03:37:34;2.10;;;0.80;;
32200;SDS011;18701;45.588;5.288;2022-07-15T03:40:00;2.45;;;1.10;;
32200;SDS011;18701;45.588;5.288;2022-07-15T03:42:26;1.85;;;0.80;;
32200;SDS011;18701;45.588;5.288;2022-07-15T03:44:51;1.83;;;1.10;;
32200;SDS011;18701;45.588;5.288;2022-07-15T03:47:17;3.88;;;0.98;;
32200;SDS011;18701;45.588;5.288;2022-07-15T03:49:43;2.40;;;0.80;;
32200;SDS011;18701;45.588;5.288;2022-07-15T03:52:08;3.67;;;1.15;;
32200;SDS011;18701;45.588;5.288;2022-07-15T03:54:34;4.05;;;1.00;;
32200;SDS011;18701;45.588;5.288;2022-07-15T03:56:59;3.33;;;1.05;;
32200;SDS011;18701;45.588;5.288;2022-07-15T03:59:25;1.67;;;0.77;;
32200;SDS011;18701;45.588;5.288;2022-07-15T04:01:51;3.75;;;0.70;;
32200;SDS011;18701;45.588;5.288;2022-07-15T04:04:17;6.97;;;1.13;;
32200;SDS011;18701;45.588;5.288;2022-07-15T04:06:43;2.20;;;0.93;;
32200;SDS011;18701;45.588;5.288;2022-07-15T04:09:08;2.75;;;0.70;;
32200;SDS011;18701;45.588;5.288;2022-07-15T04:11:35;2.90;;;1.05;;
32200;SDS011;18701;45.588;5.288;2022-07-15T04:14:01;1.35;;;0.80;;
32200;SDS011;18701;45.588;5.288;2022-07-15T04:16:26;4.15;;;1.15;;
32200;SDS011;18701;45.588;5.288;2022-07-15T04:18:53;6.07;;;1.10;;
32200;SDS011;18701;45.588;5.288;2022-07-15T04:21:19;10.32;;;1.38;;
32200;SDS011;18701;45.588;5.288;2022-07-15T04:23:45;5.68;;;1.00;;
32200;SDS011;18701;45.588;5.288;2022-07-15T04:26:10;5.57;;;0.95;;
32200;SDS011;18701;45.588;5.288;2022-07-15T04:28:36;5.63;;;1.23;;
32200;SDS011;18701;45.588;5.288;2022-07-15T04:31:01;1.85;;;1.20;;
32200;SDS011;18701;45.588;5.288;2022-07-15T04:33:27;5.88;;;1.17;;
32200;SDS011;18701;45.588;5.288;2022-07-15T04:35:53;6.32;;;1.25;;
32200;SDS011;18701;45.588;5.288;2022-07-15T04:38:19;5.40;;;1.45;;
32200;SDS011;18701;45.588;5.288;2022-07-15T04:40:46;3.33;;;1.27;;
32200;SDS011;18701;45.588;5.288;2022-07-15T04:43:11;3.10;;;0.80;;
32200;SDS011;18701;45.588;5.288;2022-07-15T04:45:37;2.03;;;0.90;;
32200;SDS011;18701;45.588;5.288;2022-07-15T04:48:03;3.30;;;1.00;;
32200;SDS011;18701;45.588;5.288;2022-07-15T04:50:49;3.72;;;0.95;;
32200;SDS011;18701;45.588;5.288;2022-07-15T04:53:17;2.65;;;0.80;;
32200;SDS011;18701;45.588;5.288;2022-07-15T04:55:44;1.58;;;1.00;;
32200;SDS011;18701;45.588;5.288;2022-07-15T04:58:10;3.92;;;1.05;;
32200;SDS011;18701;45.588;5.288;2022-07-15T05:00:37;2.15;;;1.00;;
32200;SDS011;18701;45.588;5.288;2022-07-15T05:03:03;3.38;;;1.20;;
32200;SDS011;18701;45.588;5.288;2022-07-15T05:05:30;2.75;;;0.73;;
32200;SDS011;18701;45.588;5.288;2022-07-15T05:07:55;5.22;;;1.05;;
32200;SDS011;18701;45.588;5.288;2022-07-15T05:10:21;7.28;;;0.90;;
32200;SDS011;18701;45.588;5.288;2022-07-15T05:12:46;4.20;;;1.30;;
32200;SDS011;18701;45.588;5.288;2022-07-15T05:15:12;4.50;;;1.35;;
32200;SDS011;18701;45.588;5.288;2022-07-15T05:17:39;3.38;;;0.80;;
32200;SDS011;18701;45.588;5.288;2022-07-15T05:20:06;1.30;;;1.00;;
32200;SDS011;18701;45.588;5.288;2022-07-15T05:22:32;4.78;;;0.90;;
32200;SDS011;18701;45.588;5.288;2022-07-15T05:24:57;4.22;;;0.95;;
32200;SDS011;18701;45.588;5.288;2022-07-15T05:27:25;2.72;;;1.40;;
32200;SDS011;18701;45.588;5.288;2022-07-15T05:29:51;3.90;;;1.35;;
32200;SDS011;18701;45.588;5.288;2022-07-15T05:32:16;4.53;;;1.15;;
32200;SDS011;18701;45.588;5.288;2022-07-15T05:34:42;4.47;;;1.27;;
32200;SDS011;18701;45.588;5.288;2022-07-15T05:37:08;4.93;;;1.52;;
32200;SDS011;18701;45.588;5.288;2022-07-15T05:39:34;2.20;;;1.10;;
32200;SDS011;18701;45.588;5.288;2022-07-15T05:42:00;2.35;;;1.30;;
32200;SDS011;18701;45.588;5.288;2022-07-15T05:44:25;2.75;;;1.42;;
32200;SDS011;18701;45.588;5.288;2022-07-15T05:46:51;7.30;;;1.50;;
32200;SDS011;18701;45.588;5.288;2022-07-15T05:49:18;3.17;;;1.40;;
32200;SDS011;18701;45.588;5.288;2022-07-15T05:51:43;9.45;;;1.30;;
32200;SDS011;18701;45.588;5.288;2022-07-15T05:54:09;9.02;;;1.50;;
32200;SDS011;18701;45.588;5.288;2022-07-15T05:56:38;12.73;;;1.00;;
32200;SDS011;18701;45.588;5.288;2022-07-15T05:59:04;1.88;;;1.00;;
32200;SDS011;18701;45.588;5.288;2022-07-15T06:01:29;6.40;;;1.08;;
32200;SDS011;18701;45.588;5.288;2022-07-15T06:03:55;7.10;;;0.70;;
32200;SDS011;18701;45.588;5.288;2022-07-15T06:06:20;8.40;;;0.93;;
32200;SDS011;18701;45.588;5.288;2022-07-15T06:08:46;5.72;;;0.90;;
32200;SDS011;18701;45.588;5.288;2022-07-15T06:11:12;10.38;;;0.90;;
32200;SDS011;18701;45.588;5.288;2022-07-15T06:13:38;2.05;;;0.88;;
32200;SDS011;18701;45.588;5.288;2022-07-15T06:16:04;6.20;;;1.05;;
32200;SDS011;18701;45.588;5.288;2022-07-15T06:18:31;6.95;;;0.60;;
32200;SDS011;18701;45.588;5.288;2022-07-15T06:20:57;4.70;;;0.95;;
32200;SDS011;18701;45.588;5.288;2022-07-15T06:23:22;5.88;;;1.23;;
32200;SDS011;18701;45.588;5.288;2022-07-15T06:25:50;2.88;;;0.85;;
32200;SDS011;18701;45.588;5.288;2022-07-15T06:28:16;3.67;;;1.20;;
32200;SDS011;18701;45.588;5.288;2022-07-15T06:30:41;4.80;;;0.73;;
32200;SDS011;18701;45.588;5.288;2022-07-15T06:33:07;4.53;;;0.93;;
32200;SDS011;18701;45.588;5.288;2022-07-15T06:35:33;5.65;;;1.05;;
32200;SDS011;18701;45.588;5.288;2022-07-15T06:37:59;6.72;;;1.23;;
32200;SDS011;18701;45.588;5.288;2022-07-15T06:40:25;7.15;;;1.63;;
32200;SDS011;18701;45.588;5.288;2022-07-15T06:42:50;5.20;;;1.23;;
32200;SDS011;18701;45.588;5.288;2022-07-15T06:45:16;6.07;;;1.13;;
32200;SDS011;18701;45.588;5.288;2022-07-15T06:47:42;6.20;;;1.10;;
32200;SDS011;18701;45.588;5.288;2022-07-15T06:50:08;4.30;;;1.48;;
32200;SDS011;18701;45.588;5.288;2022-07-15T06:52:35;7.18;;;1.05;;
32200;SDS011;18701;45.588;5.288;2022-07-15T06:55:01;9.13;;;1.25;;
32200;SDS011;18701;45.588;5.288;2022-07-15T06:57:27;6.40;;;1.23;;
32200;SDS011;18701;45.588;5.288;2022-07-15T06:59:53;5.93;;;1.23;;
32200;SDS011;18701;45.588;5.288;2022-07-15T07:02:19;4.43;;;1.27;;
32200;SDS011;18701;45.588;5.288;2022-07-15T07:04:45;4.15;;;1.30;;
32200;SDS011;18701;45.588;5.288;2022-07-15T07:07:11;4.28;;;1.10;;
32200;SDS011;18701;45.588;5.288;2022-07-15T07:09:36;7.00;;;0.82;;
32200;SDS011;18701;45.588;5.288;2022-07-15T07:12:02;8.73;;;1.17;;
32200;SDS011;18701;45.588;5.288;2022-07-15T07:14:28;7.68;;;1.27;;
32200;SDS011;18701;45.588;5.288;2022-07-15T07:16:54;9.57;;;1.17;;
32200;SDS011;18701;45.588;5.288;2022-07-15T07:19:19;4.45;;;1.33;;
32200;SDS011;18701;45.588;5.288;2022-07-15T07:21:45;4.40;;;1.10;;
32200;SDS011;18701;45.588;5.288;2022-07-15T07:24:10;3.78;;;0.93;;
32200;SDS011;18701;45.588;5.288;2022-07-15T07:26:36;7.95;;;1.05;;
32200;SDS011;18701;45.588;5.288;2022-07-15T07:29:02;15.88;;;1.60;;
32200;SDS011;18701;45.588;5.288;2022-07-15T07:31:28;8.98;;;1.10;;
32200;SDS011;18701;45.588;5.288;2022-07-15T07:33:57;6.30;;;1.02;;
32200;SDS011;18701;45.588;5.288;2022-07-15T07:36:24;7.45;;;1.08;;
32200;SDS011;18701;45.588;5.288;2022-07-15T07:38:50;8.27;;;1.23;;
32200;SDS011;18701;45.588;5.288;2022-07-15T07:41:16;11.80;;;1.27;;
32200;SDS011;18701;45.588;5.288;2022-07-15T07:43:42;7.55;;;1.27;;
32200;SDS011;18701;45.588;5.288;2022-07-15T07:46:08;10.23;;;1.38;;
32200;SDS011;18701;45.588;5.288;2022-07-15T07:48:35;9.85;;;1.10;;
32200;SDS011;18701;45.588;5.288;2022-07-15T07:51:03;2.60;;;0.98;;
32200;SDS011;18701;45.588;5.288;2022-07-15T07:53:28;4.43;;;1.70;;
32200;SDS011;18701;45.588;5.288;2022-07-15T07:55:54;6.15;;;1.55;;
32200;SDS011;18701;45.588;5.288;2022-07-15T07:58:19;1.67;;;1.05;;
32200;SDS011;18701;45.588;5.288;2022-07-15T08:00:45;8.88;;;1.48;;
32200;SDS011;18701;45.588;5.288;2022-07-15T08:03:11;10.32;;;0.95;;
32200;SDS011;18701;45.588;5.288;2022-07-15T08:05:37;8.07;;;1.42;;
32200;SDS011;18701;45.588;5.288;2022-07-15T08:10:40;5.88;;;1.55;;
32200;SDS011;18701;45.588;5.288;2022-07-15T08:13:06;3.08;;;1.42;;
32200;SDS011;18701;45.588;5.288;2022-07-15T08:15:33;5.50;;;1.00;;
32200;SDS011;18701;45.588;5.288;2022-07-15T08:17:59;2.38;;;0.93;;
32200;SDS011;18701;45.588;5.288;2022-07-15T08:20:25;8.00;;;1.20;;
32200;SDS011;18701;45.588;5.288;2022-07-15T08:22:50;5.35;;;1.25;;
32200;SDS011;18701;45.588;5.288;2022-07-15T08:25:23;6.15;;;0.82;;
32200;SDS011;18701;45.588;5.288;2022-07-15T08:27:55;7.97;;;0.93;;
32200;SDS011;18701;45.588;5.288;2022-07-15T08:30:22;4.05;;;0.95;;
32200;SDS011;18701;45.588;5.288;2022-07-15T08:32:48;7.32;;;0.90;;
32200;SDS011;18701;45.588;5.288;2022-07-15T08:35:14;9.35;;;1.08;;
32200;SDS011;18701;45.588;5.288;2022-07-15T08:37:40;4.45;;;1.20;;
32200;SDS011;18701;45.588;5.288;2022-07-15T08:40:06;3.75;;;1.00;;
32200;SDS011;18701;45.588;5.288;2022-07-15T08:42:34;7.40;;;0.80;;
32200;SDS011;18701;45.588;5.288;2022-07-15T08:45:00;5.80;;;1.00;;
32200;SDS011;18701;45.588;5.288;2022-07-15T08:47:26;6.03;;;0.80;;
32200;SDS011;18701;45.588;5.288;2022-07-15T08:49:56;5.70;;;1.10;;
32200;SDS011;18701;45.588;5.288;2022-07-15T08:52:25;4.32;;;0.88;;
32200;SDS011;18701;45.588;5.288;2022-07-15T08:54:51;3.35;;;1.02;;
32200;SDS011;18701;45.588;5.288;2022-07-15T08:57:20;3.17;;;0.73;;
32200;SDS011;18701;45.588;5.288;2022-07-15T08:59:45;4.63;;;1.05;;
32200;SDS011;18701;45.588;5.288;2022-07-15T09:02:14;7.28;;;1.30;;
32200;SDS011;18701;45.588;5.288;2022-07-15T09:07:50;1.33;;;0.43;;
32200;SDS011;18701;45.588;5.288;2022-07-15T09:13:34;8.43;;;1.10;;
32200;SDS011;18701;45.588;5.288;2022-07-15T09:16:08;6.22;;;1.00;;
32200;SDS011;18701;45.588;5.288;2022-07-15T09:18:36;3.50;;;0.60;;
32200;SDS011;18701;45.588;5.288;2022-07-15T09:21:17;9.13;;;1.27;;
32200;SDS011;18701;45.588;5.288;2022-07-15T09:23:44;8.38;;;0.73;;
32200;SDS011;18701;45.588;5.288;2022-07-15T09:26:30;7.80;;;0.80;;
32200;SDS011;18701;45.588;5.288;2022-07-15T09:29:02;2.22;;;0.80;;
32200;SDS011;18701;45.588;5.288;2022-07-15T09:31:48;8.90;;;0.68;;
32200;SDS011;18701;45.588;5.288;2022-07-15T09:34:58;6.68;;;0.80;;
32200;SDS011;18701;45.588;5.288;2022-07-15T09:37:28;7.40;;;0.70;;
32200;SDS011;18701;45.588;5.288;2022-07-15T09:39:55;1.05;;;0.50;;
32200;SDS011;18701;45.588;5.288;2022-07-15T09:42:21;7.43;;;1.05;;
32200;SDS011;18701;45.588;5.288;2022-07-15T09:44:47;2.60;;;0.60;;
32200;SDS011;18701;45.588;5.288;2022-07-15T09:47:17;6.05;;;0.98;;
32200;SDS011;18701;45.588;5.288;2022-07-15T09:49:44;9.25;;;0.60;;
32200;SDS011;18701;45.588;5.288;2022-07-15T09:52:11;4.25;;;0.77;;
32200;SDS011;18701;45.588;5.288;2022-07-15T09:54:46;2.33;;;0.60;;
32200;SDS011;18701;45.588;5.288;2022-07-15T09:59:44;3.55;;;1.10;;
32200;SDS011;18701;45.588;5.288;2022-07-15T10:02:12;1.17;;;0.63;;
32200;SDS011;18701;45.588;5.288;2022-07-15T10:04:39;3.20;;;0.65;;
32200;SDS011;18701;45.588;5.288;2022-07-15T10:07:05;2.60;;;0.57;;
32200;SDS011;18701;45.588;5.288;2022-07-15T10:09:32;3.17;;;0.57;;
32200;SDS011;18701;45.588;5.288;2022-07-15T10:12:06;3.60;;;0.60;;
32200;SDS011;18701;45.588;5.288;2022-07-15T10:29:02;3.08;;;0.70;;
32200;SDS011;18701;45.588;5.288;2022-07-15T10:31:31;2.80;;;0.50;;
32200;SDS011;18701;45.588;5.288;2022-07-15T10:39:13;2.17;;;0.50;;
32200;SDS011;18701;45.588;5.288;2022-07-15T10:44:12;1.63;;;0.50;;
32200;SDS011;18701;45.588;5.288;2022-07-15T10:46:38;2.63;;;0.50;;
32200;SDS011;18701;45.588;5.288;2022-07-15T10:54:02;2.45;;;0.68;;
32200;SDS011;18701;45.588;5.288;2022-07-15T10:56:29;2.33;;;0.65;;
32200;SDS011;18701;45.588;5.288;2022-07-15T11:01:40;4.25;;;0.43;;
32200;SDS011;18701;45.588;5.288;2022-07-15T11:12:10;6.93;;;0.55;;
32200;SDS011;18701;45.588;5.288;2022-07-15T11:14:49;1.80;;;0.40;;
32200;SDS011;18701;45.588;5.288;2022-07-15T11:17:22;2.15;;;0.50;;
32200;SDS011;18701;45.588;5.288;2022-07-15T11:19:55;4.70;;;0.50;;
32200;SDS011;18701;45.588;5.288;2022-07-15T11:22:23;2.90;;;0.40;;
32200;SDS011;18701;45.588;5.288;2022-07-15T11:24:50;0.60;;;0.30;;
32200;SDS011;18701;45.588;5.288;2022-07-15T11:27:16;5.18;;;0.63;;
32200;SDS011;18701;45.588;5.288;2022-07-15T11:29:46;5.50;;;0.60;;
32200;SDS011;18701;45.588;5.288;2022-07-15T11:32:16;6.70;;;0.43;;
32200;SDS011;18701;45.588;5.288;2022-07-15T11:34:45;2.25;;;0.22;;
32200;SDS011;18701;45.588;5.288;2022-07-15T11:37:12;4.45;;;0.40;;
32200;SDS011;18701;45.588;5.288;2022-07-15T11:39:44;2.20;;;0.40;;
32200;SDS011;18701;45.588;5.288;2022-07-15T11:42:21;4.35;;;0.30;;
32200;SDS011;18701;45.588;5.288;2022-07-15T11:45:08;0.73;;;0.30;;
32200;SDS011;18701;45.588;5.288;2022-07-15T11:47:34;1.35;;;0.40;;
32200;SDS011;18701;45.588;5.288;2022-07-15T11:50:02;1.45;;;0.50;;
32200;SDS011;18701;45.588;5.288;2022-07-15T11:52:30;1.75;;;0.50;;
32200;SDS011;18701;45.588;5.288;2022-07-15T11:54:56;3.45;;;0.80;;
32200;SDS011;18701;45.588;5.288;2022-07-15T11:57:22;6.25;;;0.50;;
32200;SDS011;18701;45.588;5.288;2022-07-15T11:59:54;1.17;;;0.40;;
32200;SDS011;18701;45.588;5.288;2022-07-15T12:02:25;3.55;;;0.32;;
32200;SDS011;18701;45.588;5.288;2022-07-15T12:05:00;2.95;;;0.40;;
32200;SDS011;18701;45.588;5.288;2022-07-15T12:10:07;1.45;;;0.50;;
32200;SDS011;18701;45.588;5.288;2022-07-15T12:12:34;5.75;;;0.40;;
32200;SDS011;18701;45.588;5.288;2022-07-15T12:14:59;3.60;;;0.50;;
32200;SDS011;18701;45.588;5.288;2022-07-15T12:17:25;5.25;;;0.50;;
32200;SDS011;18701;45.588;5.288;2022-07-15T12:19:51;2.58;;;0.63;;
32200;SDS011;18701;45.588;5.288;2022-07-15T12:22:20;1.60;;;0.35;;
32200;SDS011;18701;45.588;5.288;2022-07-15T12:24:47;4.50;;;0.45;;
32200;SDS011;18701;45.588;5.288;2022-07-15T12:27:17;1.77;;;0.30;;
32200;SDS011;18701;45.588;5.288;2022-07-15T12:29:44;5.60;;;0.30;;
32200;SDS011;18701;45.588;5.288;2022-07-15T12:32:11;1.90;;;0.28;;
32200;SDS011;18701;45.588;5.288;2022-07-15T12:37:16;6.18;;;0.60;;
32200;SDS011;18701;45.588;5.288;2022-07-15T12:42:47;4.55;;;0.30;;
32200;SDS011;18701;45.588;5.288;2022-07-15T12:45:14;8.68;;;0.65;;
32200;SDS011;18701;45.588;5.288;2022-07-15T12:48:01;4.88;;;0.50;;
32200;SDS011;18701;45.588;5.288;2022-07-15T12:53:22;6.22;;;0.40;;
32200;SDS011;18701;45.588;5.288;2022-07-15T12:55:50;6.72;;;0.45;;
32200;SDS011;18701;45.588;5.288;2022-07-15T12:58:24;4.72;;;0.50;;
32200;SDS011;18701;45.588;5.288;2022-07-15T13:01:07;2.33;;;0.40;;
32200;SDS011;18701;45.588;5.288;2022-07-15T13:03:33;6.05;;;0.70;;
32200;SDS011;18701;45.588;5.288;2022-07-15T13:05:59;6.72;;;0.40;;
32200;SDS011;18701;45.588;5.288;2022-07-15T13:08:28;5.35;;;0.82;;
32200;SDS011;18701;45.588;5.288;2022-07-15T13:10:56;3.30;;;0.40;;
32200;SDS011;18701;45.588;5.288;2022-07-15T13:13:25;2.35;;;0.20;;
32200;SDS011;18701;45.588;5.288;2022-07-15T13:15:52;9.43;;;0.73;;
32200;SDS011;18701;45.588;5.288;2022-07-15T13:18:21;5.97;;;0.55;;
32200;SDS011;18701;45.588;5.288;2022-07-15T13:20:49;3.33;;;0.30;;
32200;SDS011;18701;45.588;5.288;2022-07-15T13:23:16;3.47;;;0.40;;
32200;SDS011;18701;45.588;5.288;2022-07-15T13:25:42;1.10;;;0.30;;
32200;SDS011;18701;45.588;5.288;2022-07-15T13:28:08;5.57;;;0.43;;
32200;SDS011;18701;45.588;5.288;2022-07-15T13:30:34;6.25;;;0.50;;
32200;SDS011;18701;45.588;5.288;2022-07-15T13:33:00;2.35;;;0.50;;
32200;SDS011;18701;45.588;5.288;2022-07-15T13:35:26;5.55;;;0.60;;
32200;SDS011;18701;45.588;5.288;2022-07-15T13:37:52;2.08;;;0.50;;
32200;SDS011;18701;45.588;5.288;2022-07-15T13:40:17;5.28;;;0.40;;
32200;SDS011;18701;45.588;5.288;2022-07-15T13:42:44;3.95;;;0.60;;
32200;SDS011;18701;45.588;5.288;2022-07-15T13:45:11;1.50;;;0.52;;
32200;SDS011;18701;45.588;5.288;2022-07-15T13:47:37;3.22;;;0.60;;
32200;SDS011;18701;45.588;5.288;2022-07-15T13:50:03;7.20;;;0.50;;
32200;SDS011;18701;45.588;5.288;2022-07-15T13:52:50;5.78;;;0.85;;
32200;SDS011;18701;45.588;5.288;2022-07-15T13:55:17;2.92;;;0.52;;
32200;SDS011;18701;45.588;5.288;2022-07-15T13:57:44;3.38;;;0.32;;
32200;SDS011;18701;45.588;5.288;2022-07-15T14:00:11;2.10;;;0.40;;
32200;SDS011;18701;45.588;5.288;2022-07-15T14:02:39;3.63;;;0.50;;
32200;SDS011;18701;45.588;5.288;2022-07-15T14:05:06;1.55;;;0.60;;
32200;SDS011;18701;45.588;5.288;2022-07-15T14:07:32;5.15;;;0.65;;
32200;SDS011;18701;45.588;5.288;2022-07-15T14:09:58;3.58;;;0.50;;
32200;SDS011;18701;45.588;5.288;2022-07-15T14:12:26;3.05;;;0.40;;
32200;SDS011;18701;45.588;5.288;2022-07-15T14:14:52;4.38;;;0.60;;
32200;SDS011;18701;45.588;5.288;2022-07-15T14:17:18;1.63;;;0.60;;
32200;SDS011;18701;45.588;5.288;2022-07-15T14:19:44;4.50;;;0.52;;
32200;SDS011;18701;45.588;5.288;2022-07-15T14:22:10;2.08;;;0.40;;
32200;SDS011;18701;45.588;5.288;2022-07-15T14:24:35;2.95;;;0.75;;
32200;SDS011;18701;45.588;5.288;2022-07-15T14:27:01;6.55;;;0.60;;
32200;SDS011;18701;45.588;5.288;2022-07-15T14:29:27;3.47;;;0.60;;
32200;SDS011;18701;45.588;5.288;2022-07-15T14:31:53;4.00;;;0.88;;
32200;SDS011;18701;45.588;5.288;2022-07-15T14:34:19;1.85;;;0.60;;
32200;SDS011;18701;45.588;5.288;2022-07-15T14:36:44;5.45;;;0.52;;
32200;SDS011;18701;45.588;5.288;2022-07-15T14:39:10;7.05;;;1.00;;
32200;SDS011;18701;45.588;5.288;2022-07-15T14:41:36;2.95;;;0.60;;
32200;SDS011;18701;45.588;5.288;2022-07-15T14:44:02;5.55;;;0.50;;
32200;SDS011;18701;45.588;5.288;2022-07-15T14:46:28;1.83;;;0.47;;
32200;SDS011;18701;45.588;5.288;2022-07-15T14:48:54;3.13;;;0.77;;
32200;SDS011;18701;45.588;5.288;2022-07-15T14:51:19;5.43;;;0.75;;
32200;SDS011;18701;45.588;5.288;2022-07-15T14:53:45;3.25;;;0.85;;
32200;SDS011;18701;45.588;5.288;2022-07-15T14:56:11;8.27;;;0.47;;
32200;SDS011;18701;45.588;5.288;2022-07-15T14:58:37;8.10;;;0.68;;
32200;SDS011;18701;45.588;5.288;2022-07-15T15:01:03;3.05;;;0.80;;
32200;SDS011;18701;45.588;5.288;2022-07-15T15:03:29;6.88;;;0.80;;
32200;SDS011;18701;45.588;5.288;2022-07-15T15:05:54;1.23;;;0.60;;
32200;SDS011;18701;45.588;5.288;2022-07-15T15:08:21;7.32;;;0.90;;
32200;SDS011;18701;45.588;5.288;2022-07-15T15:10:47;2.38;;;0.82;;
32200;SDS011;18701;45.588;5.288;2022-07-15T15:13:13;9.80;;;0.80;;
32200;SDS011;18701;45.588;5.288;2022-07-15T15:15:39;5.10;;;0.80;;
32200;SDS011;18701;45.588;5.288;2022-07-15T15:18:04;8.13;;;0.90;;
32200;SDS011;18701;45.588;5.288;2022-07-15T15:20:30;2.80;;;0.70;;
32200;SDS011;18701;45.588;5.288;2022-07-15T15:22:56;3.55;;;0.73;;
32200;SDS011;18701;45.588;5.288;2022-07-15T15:25:21;7.70;;;0.88;;
32200;SDS011;18701;45.588;5.288;2022-07-15T15:28:06;2.40;;;0.55;;
32200;SDS011;18701;45.588;5.288;2022-07-15T15:30:32;4.65;;;0.60;;
32200;SDS011;18701;45.588;5.288;2022-07-15T15:32:58;5.10;;;0.82;;
32200;SDS011;18701;45.588;5.288;2022-07-15T15:35:24;2.53;;;0.77;;
32200;SDS011;18701;45.588;5.288;2022-07-15T15:37:50;3.28;;;0.70;;
32200;SDS011;18701;45.588;5.288;2022-07-15T15:40:16;4.05;;;0.88;;
32200;SDS011;18701;45.588;5.288;2022-07-15T15:42:42;4.97;;;0.60;;
32200;SDS011;18701;45.588;5.288;2022-07-15T15:45:08;23.60;;;0.90;;
32200;SDS011;18701;45.588;5.288;2022-07-15T15:47:34;1.80;;;0.50;;